TimePDT,TemperatureF,Dew PointF,Humidity,Sea Level PressureIn,VisibilityMPH,Wind Direction,Wind SpeedMPH,Gust SpeedMPH,PrecipitationIn,Events,Conditions,WindDirDegrees,DateUTC
12:56 AM,48.9,32.0,52,30.19,10.0,Calm,Calm,-,N/A,,Clear,0,2012-10-14 07:56:00
1:56 AM,46.9,34.0,61,30.21,10.0,WNW,6.9,-,N/A,,Clear,300,2012-10-14 08:56:00
2:56 AM,43.0,33.1,68,30.21,10.0,NNE,4.6,-,N/A,,Clear,20,2012-10-14 09:56:00
3:56 AM,41.0,33.1,73,30.21,10.0,Calm,Calm,-,N/A,,Clear,0,2012-10-14 10:56:00
4:56 AM,42.1,33.1,70,30.23,10.0,NW,6.9,-,N/A,,Clear,310,2012-10-14 11:56:00
5:56 AM,43.0,32.0,65,30.25,10.0,West,6.9,-,N/A,,Clear,280,2012-10-14 12:56:00
6:56 AM,39.0,32.0,76,30.27,10.0,NW,6.9,-,N/A,,Clear,310,2012-10-14 13:56:00
7:56 AM,45.0,34.0,65,30.27,10.0,NNW,4.6,-,N/A,,Clear,340,2012-10-14 14:56:00
8:56 AM,55.0,34.0,45,30.23,10.0,Calm,Calm,-,N/A,,Clear,0,2012-10-14 15:56:00
9:56 AM,62.1,34.0,35,30.22,10.0,NNE,5.8,-,N/A,,Clear,20,2012-10-14 16:56:00
10:56 AM,66.9,30.0,25,30.22,10.0,West,4.6,-,N/A,,Clear,270,2012-10-14 17:56:00
11:56 AM,70.0,30.0,23,30.19,10.0,West,4.6,-,N/A,,Clear,260,2012-10-14 18:56:00
12:56 PM,72.0,28.9,20,30.16,10.0,Calm,Calm,-,N/A,,Clear,0,2012-10-14 19:56:00
1:56 PM,75.0,30.9,20,30.12,10.0,East,4.6,-,N/A,,Clear,90,2012-10-14 20:56:00
2:56 PM,75.9,30.0,19,30.10,10.0,South,4.6,-,N/A,,Clear,170,2012-10-14 21:56:00
3:56 PM,78.1,28.9,17,30.09,10.0,Variable,4.6,-,N/A,,Clear,0,2012-10-14 22:56:00
4:56 PM,77.0,28.0,17,30.08,10.0,South,3.5,-,N/A,,Clear,180,2012-10-14 23:56:00
5:56 PM,72.0,30.9,22,30.08,10.0,South,6.9,-,N/A,,Clear,190,2012-10-15 00:56:00
6:56 PM,68.0,30.9,25,30.10,10.0,South,8.1,-,N/A,,Clear,170,2012-10-15 01:56:00
7:56 PM,61.0,33.1,35,30.11,10.0,SSW,6.9,-,N/A,,Clear,210,2012-10-15 02:56:00
8:56 PM,55.9,35.1,45,30.11,10.0,Calm,Calm,-,N/A,,Clear,0,2012-10-15 03:56:00
9:56 PM,51.8,35.6,54,30.20,10.0,NW,6.9,-,N/A,,Clear,320,2012-10-15 04:56:00
10:56 PM,48.9,36.0,61,30.11,10.0,NW,5.8,-,N/A,,Clear,310,2012-10-15 05:56:00
11:56 PM,48.9,35.1,59,30.09,10.0,NNW,3.5,-,N/A,,Clear,330,2012-10-15 06:56:00